sensor_id;sensor_type;location;lat;lon;timestamp;P1;durP1;ratioP1;P2;durP2;ratioP2
10387;SDS011;5240;51.128;4.566;2022-12-29T00:01:31;4.07;;;2.65;;
10387;SDS011;5240;51.128;4.566;2022-12-29T00:03:59;2.53;;;2.33;;
10387;SDS011;5240;51.128;4.566;2022-12-29T00:06:27;2.65;;;2.45;;
10387;SDS011;5240;51.128;4.566;2022-12-29T00:08:55;3.72;;;1.85;;
10387;SDS011;5240;51.128;4.566;2022-12-29T00:11:22;3.92;;;2.10;;
10387;SDS011;5240;51.128;4.566;2022-12-29T00:13:51;2.95;;;1.98;;
10387;SDS011;5240;51.128;4.566;2022-12-29T00:16:36;1.80;;;1.70;;
10387;SDS011;5240;51.128;4.566;2022-12-29T00:19:04;1.90;;;1.80;;
10387;SDS011;5240;51.128;4.566;2022-12-29T00:21:33;3.17;;;1.80;;
10387;SDS011;5240;51.128;4.566;2022-12-29T00:24:18;2.63;;;1.60;;
10387;SDS011;5240;51.128;4.566;2022-12-29T00:27:10;2.40;;;1.77;;
10387;SDS011;5240;51.128;4.566;2022-12-29T00:29:56;2.17;;;1.73;;
10387;SDS011;5240;51.128;4.566;2022-12-29T00:32:40;1.88;;;1.48;;
10387;SDS011;5240;51.128;4.566;2022-12-29T00:35:25;1.40;;;1.30;;
10387;SDS011;5240;51.128;4.566;2022-12-29T00:37:56;2.08;;;1.70;;
10387;SDS011;5240;51.128;4.566;2022-12-29T00:40:45;2.05;;;1.45;;
10387;SDS011;5240;51.128;4.566;2022-12-29T00:43:29;1.55;;;1.38;;
10387;SDS011;5240;51.128;4.566;2022-12-29T00:46:22;2.40;;;1.50;;
10387;SDS011;5240;51.128;4.566;2022-12-29T00:48:49;1.60;;;1.23;;
10387;SDS011;5240;51.128;4.566;2022-12-29T00:51:33;2.72;;;1.38;;
10387;SDS011;5240;51.128;4.566;2022-12-29T00:54:02;1.30;;;1.23;;
10387;SDS011;5240;51.128;4.566;2022-12-29T00:56:29;3.45;;;1.35;;
10387;SDS011;5240;51.128;4.566;2022-12-29T00:58:59;2.95;;;1.45;;
10387;SDS011;5240;51.128;4.566;2022-12-29T01:01:26;2.42;;;1.23;;
10387;SDS011;5240;51.128;4.566;2022-12-29T01:03:53;2.72;;;1.33;;
10387;SDS011;5240;51.128;4.566;2022-12-29T01:06:20;1.98;;;1.40;;
10387;SDS011;5240;51.128;4.566;2022-12-29T01:08:47;2.55;;;1.20;;
10387;SDS011;5240;51.128;4.566;2022-12-29T01:11:36;4.15;;;1.30;;
10387;SDS011;5240;51.128;4.566;2022-12-29T01:14:02;4.15;;;1.48;;
10387;SDS011;5240;51.128;4.566;2022-12-29T01:16:29;6.90;;;1.40;;
10387;SDS011;5240;51.128;4.566;2022-12-29T01:18:56;2.90;;;1.20;;
10387;SDS011;5240;51.128;4.566;2022-12-29T01:21:24;3.08;;;1.38;;
10387;SDS011;5240;51.128;4.566;2022-12-29T01:23:51;4.45;;;1.70;;
10387;SDS011;5240;51.128;4.566;2022-12-29T01:26:18;3.00;;;1.65;;
10387;SDS011;5240;51.128;4.566;2022-12-29T01:28:47;2.67;;;1.40;;
10387;SDS011;5240;51.128;4.566;2022-12-29T01:31:14;3.92;;;1.30;;
10387;SDS011;5240;51.128;4.566;2022-12-29T01:33:42;3.20;;;1.20;;
10387;SDS011;5240;51.128;4.566;2022-12-29T01:36:10;2.83;;;1.13;;
10387;SDS011;5240;51.128;4.566;2022-12-29T01:38:39;2.42;;;1.30;;
10387;SDS011;5240;51.128;4.566;2022-12-29T01:41:07;3.45;;;1.42;;
10387;SDS011;5240;51.128;4.566;2022-12-29T01:43:40;3.65;;;1.30;;
10387;SDS011;5240;51.128;4.566;2022-12-29T01:46:13;4.10;;;1.40;;
10387;SDS011;5240;51.128;4.566;2022-12-29T01:48:49;2.83;;;1.52;;
10387;SDS011;5240;51.128;4.566;2022-12-29T01:51:18;2.63;;;1.48;;
10387;SDS011;5240;51.128;4.566;2022-12-29T01:53:49;2.63;;;1.42;;
10387;SDS011;5240;51.128;4.566;2022-12-29T01:56:17;2.95;;;1.30;;
10387;SDS011;5240;51.128;4.566;2022-12-29T01:58:47;1.55;;;1.23;;
10387;SDS011;5240;51.128;4.566;2022-12-29T02:01:21;3.95;;;1.30;;
10387;SDS011;5240;51.128;4.566;2022-12-29T02:03:48;4.28;;;1.70;;
10387;SDS011;5240;51.128;4.566;2022-12-29T02:06:17;2.95;;;1.20;;
10387;SDS011;5240;51.128;4.566;2022-12-29T02:08:49;3.08;;;1.30;;
10387;SDS011;5240;51.128;4.566;2022-12-29T02:11:18;2.08;;;1.08;;
10387;SDS011;5240;51.128;4.566;2022-12-29T02:13:47;3.38;;;1.60;;
10387;SDS011;5240;51.128;4.566;2022-12-29T02:16:20;1.35;;;1.25;;
10387;SDS011;5240;51.128;4.566;2022-12-29T02:19:09;1.83;;;1.20;;
10387;SDS011;5240;51.128;4.566;2022-12-29T02:22:01;4.25;;;1.23;;
10387;SDS011;5240;51.128;4.566;2022-12-29T02:24:45;2.28;;;1.30;;
10387;SDS011;5240;51.128;4.566;2022-12-29T02:27:37;5.10;;;1.50;;
10387;SDS011;5240;51.128;4.566;2022-12-29T02:33:22;3.50;;;1.42;;
10387;SDS011;5240;51.128;4.566;2022-12-29T02:36:01;3.00;;;1.20;;
10387;SDS011;5240;51.128;4.566;2022-12-29T02:38:44;2.83;;;1.30;;
10387;SDS011;5240;51.128;4.566;2022-12-29T02:41:21;2.60;;;1.40;;
10387;SDS011;5240;51.128;4.566;2022-12-29T02:43:55;3.42;;;1.55;;
10387;SDS011;5240;51.128;4.566;2022-12-29T02:46:28;3.53;;;1.38;;
10387;SDS011;5240;51.128;4.566;2022-12-29T02:49:04;3.78;;;1.30;;
10387;SDS011;5240;51.128;4.566;2022-12-29T02:51:39;3.22;;;1.50;;
10387;SDS011;5240;51.128;4.566;2022-12-29T02:54:10;5.13;;;1.77;;
10387;SDS011;5240;51.128;4.566;2022-12-29T02:56:54;3.67;;;1.20;;
10387;SDS011;5240;51.128;4.566;2022-12-29T02:59:21;2.47;;;1.10;;
10387;SDS011;5240;51.128;4.566;2022-12-29T03:01:59;3.83;;;1.38;;
10387;SDS011;5240;51.128;4.566;2022-12-29T03:07:55;6.53;;;1.30;;
10387;SDS011;5240;51.128;4.566;2022-12-29T03:10:34;4.65;;;1.40;;
10387;SDS011;5240;51.128;4.566;2022-12-29T03:13:10;2.40;;;1.30;;
10387;SDS011;5240;51.128;4.566;2022-12-29T03:16:03;2.70;;;1.33;;
10387;SDS011;5240;51.128;4.566;2022-12-29T03:18:39;3.38;;;1.33;;
10387;SDS011;5240;51.128;4.566;2022-12-29T03:21:12;3.42;;;1.20;;
10387;SDS011;5240;51.128;4.566;2022-12-29T03:23:44;3.35;;;1.27;;
10387;SDS011;5240;51.128;4.566;2022-12-29T03:26:15;3.47;;;1.30;;
10387;SDS011;5240;51.128;4.566;2022-12-29T03:28:45;2.97;;;1.17;;
10387;SDS011;5240;51.128;4.566;2022-12-29T03:31:18;4.07;;;1.45;;
10387;SDS011;5240;51.128;4.566;2022-12-29T03:33:47;5.70;;;1.13;;
10387;SDS011;5240;51.128;4.566;2022-12-29T03:36:17;5.70;;;1.45;;
10387;SDS011;5240;51.128;4.566;2022-12-29T03:38:54;4.22;;;1.50;;
10387;SDS011;5240;51.128;4.566;2022-12-29T03:41:26;5.97;;;1.58;;
10387;SDS011;5240;51.128;4.566;2022-12-29T03:43:56;5.25;;;1.58;;
10387;SDS011;5240;51.128;4.566;2022-12-29T03:46:23;4.95;;;1.38;;
10387;SDS011;5240;51.128;4.566;2022-12-29T03:48:52;5.25;;;1.70;;
10387;SDS011;5240;51.128;4.566;2022-12-29T03:51:19;3.47;;;1.55;;
10387;SDS011;5240;51.128;4.566;2022-12-29T03:53:46;5.32;;;1.70;;
10387;SDS011;5240;51.128;4.566;2022-12-29T03:56:13;6.25;;;1.70;;
10387;SDS011;5240;51.128;4.566;2022-12-29T03:58:40;5.50;;;1.80;;
10387;SDS011;5240;51.128;4.566;2022-12-29T04:01:07;2.63;;;1.30;;
10387;SDS011;5240;51.128;4.566;2022-12-29T04:03:34;5.57;;;1.45;;
10387;SDS011;5240;51.128;4.566;2022-12-29T04:06:03;5.60;;;1.55;;
10387;SDS011;5240;51.128;4.566;2022-12-29T04:08:30;4.68;;;1.60;;
10387;SDS011;5240;51.128;4.566;2022-12-29T04:10:57;8.23;;;1.92;;
10387;SDS011;5240;51.128;4.566;2022-12-29T04:13:24;5.43;;;1.40;;
10387;SDS011;5240;51.128;4.566;2022-12-29T04:15:51;5.10;;;1.60;;
10387;SDS011;5240;51.128;4.566;2022-12-29T04:18:18;4.95;;;1.55;;
10387;SDS011;5240;51.128;4.566;2022-12-29T04:20:45;5.80;;;1.40;;
10387;SDS011;5240;51.128;4.566;2022-12-29T04:23:29;6.65;;;1.70;;
10387;SDS011;5240;51.128;4.566;2022-12-29T04:25:57;5.85;;;1.60;;
10387;SDS011;5240;51.128;4.566;2022-12-29T04:28:24;7.45;;;1.83;;
10387;SDS011;5240;51.128;4.566;2022-12-29T04:30:52;3.80;;;1.27;;
10387;SDS011;5240;51.128;4.566;2022-12-29T04:33:20;9.20;;;1.77;;
10387;SDS011;5240;51.128;4.566;2022-12-29T04:35:47;5.78;;;1.40;;
10387;SDS011;5240;51.128;4.566;2022-12-29T04:38:14;3.15;;;1.50;;
10387;SDS011;5240;51.128;4.566;2022-12-29T04:40:43;4.05;;;1.30;;
10387;SDS011;5240;51.128;4.566;2022-12-29T04:43:11;3.60;;;1.42;;
10387;SDS011;5240;51.128;4.566;2022-12-29T04:45:38;4.25;;;1.42;;
10387;SDS011;5240;51.128;4.566;2022-12-29T04:48:08;2.65;;;1.20;;
10387;SDS011;5240;51.128;4.566;2022-12-29T04:50:35;5.22;;;1.48;;
10387;SDS011;5240;51.128;4.566;2022-12-29T04:53:02;5.03;;;1.50;;
10387;SDS011;5240;51.128;4.566;2022-12-29T04:55:30;4.18;;;1.27;;
10387;SDS011;5240;51.128;4.566;2022-12-29T04:57:58;7.47;;;1.63;;
10387;SDS011;5240;51.128;4.566;2022-12-29T05:00:25;7.30;;;1.70;;
10387;SDS011;5240;51.128;4.566;2022-12-29T05:02:52;2.65;;;1.35;;
10387;SDS011;5240;51.128;4.566;2022-12-29T05:05:19;6.18;;;1.67;;
10387;SDS011;5240;51.128;4.566;2022-12-29T05:07:46;5.18;;;1.60;;
10387;SDS011;5240;51.128;4.566;2022-12-29T05:10:13;4.00;;;1.30;;
10387;SDS011;5240;51.128;4.566;2022-12-29T05:12:40;5.10;;;1.63;;
10387;SDS011;5240;51.128;4.566;2022-12-29T05:15:09;6.40;;;1.40;;
10387;SDS011;5240;51.128;4.566;2022-12-29T05:17:37;4.80;;;1.77;;
10387;SDS011;5240;51.128;4.566;2022-12-29T05:20:04;2.40;;;1.33;;
10387;SDS011;5240;51.128;4.566;2022-12-29T05:22:32;4.65;;;1.65;;
10387;SDS011;5240;51.128;4.566;2022-12-29T05:24:59;3.83;;;1.38;;
10387;SDS011;5240;51.128;4.566;2022-12-29T05:27:26;4.85;;;1.52;;
10387;SDS011;5240;51.128;4.566;2022-12-29T05:29:53;4.70;;;1.42;;
10387;SDS011;5240;51.128;4.566;2022-12-29T05:32:22;4.38;;;1.60;;
10387;SDS011;5240;51.128;4.566;2022-12-29T05:34:49;5.03;;;1.35;;
10387;SDS011;5240;51.128;4.566;2022-12-29T05:37:16;5.45;;;1.42;;
10387;SDS011;5240;51.128;4.566;2022-12-29T05:39:43;4.15;;;1.20;;
10387;SDS011;5240;51.128;4.566;2022-12-29T05:42:10;4.90;;;1.90;;
10387;SDS011;5240;51.128;4.566;2022-12-29T05:44:37;7.47;;;1.70;;
10387;SDS011;5240;51.128;4.566;2022-12-29T05:47:04;4.72;;;1.40;;
10387;SDS011;5240;51.128;4.566;2022-12-29T05:49:33;7.43;;;1.83;;
10387;SDS011;5240;51.128;4.566;2022-12-29T05:52:00;7.82;;;1.85;;
10387;SDS011;5240;51.128;4.566;2022-12-29T05:54:27;5.10;;;1.50;;
10387;SDS011;5240;51.128;4.566;2022-12-29T05:56:54;4.60;;;1.63;;
10387;SDS011;5240;51.128;4.566;2022-12-29T05:59:21;7.45;;;1.98;;
10387;SDS011;5240;51.128;4.566;2022-12-29T06:01:48;4.00;;;1.60;;
10387;SDS011;5240;51.128;4.566;2022-12-29T06:04:15;9.40;;;1.85;;
10387;SDS011;5240;51.128;4.566;2022-12-29T06:06:44;5.15;;;1.67;;
10387;SDS011;5240;51.128;4.566;2022-12-29T06:09:10;6.55;;;2.00;;
10387;SDS011;5240;51.128;4.566;2022-12-29T06:11:38;5.38;;;1.58;;
10387;SDS011;5240;51.128;4.566;2022-12-29T06:14:05;6.25;;;2.00;;
10387;SDS011;5240;51.128;4.566;2022-12-29T06:16:32;2.72;;;1.60;;
10387;SDS011;5240;51.128;4.566;2022-12-29T06:18:59;7.75;;;1.85;;
10387;SDS011;5240;51.128;4.566;2022-12-29T06:21:26;13.35;;;2.08;;
10387;SDS011;5240;51.128;4.566;2022-12-29T06:23:54;7.50;;;2.10;;
10387;SDS011;5240;51.128;4.566;2022-12-29T06:26:21;4.93;;;1.55;;
10387;SDS011;5240;51.128;4.566;2022-12-29T06:28:48;9.07;;;2.00;;
10387;SDS011;5240;51.128;4.566;2022-12-29T06:31:15;6.72;;;1.98;;
10387;SDS011;5240;51.128;4.566;2022-12-29T06:33:42;4.72;;;1.63;;
10387;SDS011;5240;51.128;4.566;2022-12-29T06:36:09;6.80;;;2.05;;
10387;SDS011;5240;51.128;4.566;2022-12-29T06:38:36;5.53;;;1.63;;
10387;SDS011;5240;51.128;4.566;2022-12-29T06:41:05;9.68;;;2.25;;
10387;SDS011;5240;51.128;4.566;2022-12-29T06:43:32;12.32;;;2.28;;
10387;SDS011;5240;51.128;4.566;2022-12-29T06:46:00;6.22;;;1.80;;
10387;SDS011;5240;51.128;4.566;2022-12-29T06:48:28;7.60;;;2.20;;
10387;SDS011;5240;51.128;4.566;2022-12-29T06:50:55;7.47;;;2.03;;
10387;SDS011;5240;51.128;4.566;2022-12-29T06:53:22;7.65;;;2.42;;
10387;SDS011;5240;51.128;4.566;2022-12-29T06:55:49;7.47;;;2.15;;
10387;SDS011;5240;51.128;4.566;2022-12-29T06:58:17;7.03;;;1.70;;
10387;SDS011;5240;51.128;4.566;2022-12-29T07:00:44;5.68;;;1.98;;
10387;SDS011;5240;51.128;4.566;2022-12-29T07:03:11;8.77;;;2.50;;
10387;SDS011;5240;51.128;4.566;2022-12-29T07:05:38;10.32;;;2.28;;
10387;SDS011;5240;51.128;4.566;2022-12-29T07:08:05;8.95;;;1.92;;
10387;SDS011;5240;51.128;4.566;2022-12-29T07:10:32;7.93;;;2.35;;
10387;SDS011;5240;51.128;4.566;2022-12-29T07:12:59;7.93;;;2.10;;
10387;SDS011;5240;51.128;4.566;2022-12-29T07:15:28;10.65;;;2.65;;
10387;SDS011;5240;51.128;4.566;2022-12-29T07:17:55;10.93;;;2.47;;
10387;SDS011;5240;51.128;4.566;2022-12-29T07:20:22;10.07;;;2.10;;
10387;SDS011;5240;51.128;4.566;2022-12-29T07:22:49;6.47;;;2.13;;
10387;SDS011;5240;51.128;4.566;2022-12-29T07:25:16;12.25;;;2.72;;
10387;SDS011;5240;51.128;4.566;2022-12-29T07:27:43;8.70;;;2.15;;
10387;SDS011;5240;51.128;4.566;2022-12-29T07:30:11;13.02;;;3.22;;
10387;SDS011;5240;51.128;4.566;2022-12-29T07:32:40;8.60;;;2.10;;
10387;SDS011;5240;51.128;4.566;2022-12-29T07:35:07;7.03;;;1.92;;
10387;SDS011;5240;51.128;4.566;2022-12-29T07:37:34;6.25;;;2.38;;
10387;SDS011;5240;51.128;4.566;2022-12-29T07:40:02;10.27;;;2.20;;
10387;SDS011;5240;51.128;4.566;2022-12-29T07:42:30;7.57;;;2.28;;
10387;SDS011;5240;51.128;4.566;2022-12-29T07:44:57;8.10;;;2.40;;
10387;SDS011;5240;51.128;4.566;2022-12-29T07:47:24;9.50;;;2.42;;
10387;SDS011;5240;51.128;4.566;2022-12-29T07:49:53;7.90;;;2.40;;
10387;SDS011;5240;51.128;4.566;2022-12-29T07:52:20;6.90;;;2.10;;
10387;SDS011;5240;51.128;4.566;2022-12-29T07:54:47;7.07;;;2.28;;
10387;SDS011;5240;51.128;4.566;2022-12-29T07:57:14;7.93;;;2.80;;
10387;SDS011;5240;51.128;4.566;2022-12-29T07:59:41;10.50;;;2.20;;
10387;SDS011;5240;51.128;4.566;2022-12-29T08:02:09;6.25;;;2.40;;
10387;SDS011;5240;51.128;4.566;2022-12-29T08:04:37;7.90;;;2.55;;
10387;SDS011;5240;51.128;4.566;2022-12-29T08:07:06;10.45;;;2.10;;
10387;SDS011;5240;51.128;4.566;2022-12-29T08:09:33;6.85;;;1.83;;
10387;SDS011;5240;51.128;4.566;2022-12-29T08:12:00;6.68;;;1.88;;
10387;SDS011;5240;51.128;4.566;2022-12-29T08:14:27;8.48;;;2.28;;
10387;SDS011;5240;51.128;4.566;2022-12-29T08:16:54;5.60;;;2.13;;
10387;SDS011;5240;51.128;4.566;2022-12-29T08:19:21;7.55;;;1.95;;
10387;SDS011;5240;51.128;4.566;2022-12-29T08:21:48;9.80;;;2.10;;
10387;SDS011;5240;51.128;4.566;2022-12-29T08:24:16;9.70;;;2.22;;
10387;SDS011;5240;51.128;4.566;2022-12-29T08:26:43;6.45;;;2.30;;
10387;SDS011;5240;51.128;4.566;2022-12-29T08:29:10;7.65;;;2.30;;
10387;SDS011;5240;51.128;4.566;2022-12-29T08:31:37;9.65;;;2.40;;
10387;SDS011;5240;51.128;4.566;2022-12-29T08:34:04;8.88;;;2.45;;
10387;SDS011;5240;51.128;4.566;2022-12-29T08:36:31;8.27;;;2.35;;
10387;SDS011;5240;51.128;4.566;2022-12-29T08:38:58;6.10;;;2.35;;
10387;SDS011;5240;51.128;4.566;2022-12-29T08:41:27;11.07;;;2.67;;
10387;SDS011;5240;51.128;4.566;2022-12-29T08:43:54;10.27;;;2.85;;
10387;SDS011;5240;51.128;4.566;2022-12-29T08:46:21;12.20;;;2.30;;
10387;SDS011;5240;51.128;4.566;2022-12-29T08:48:48;10.20;;;2.45;;
10387;SDS011;5240;51.128;4.566;2022-12-29T08:51:15;9.32;;;2.10;;
10387;SDS011;5240;51.128;4.566;2022-12-29T08:53:42;6.97;;;2.25;;
10387;SDS011;5240;51.128;4.566;2022-12-29T08:56:09;11.32;;;2.60;;
10387;SDS011;5240;51.128;4.566;2022-12-29T08:58:38;8.82;;;2.30;;
10387;SDS011;5240;51.128;4.566;2022-12-29T09:01:05;7.28;;;2.28;;
10387;SDS011;5240;51.128;4.566;2022-12-29T09:03:32;6.18;;;2.17;;
10387;SDS011;5240;51.128;4.566;2022-12-29T09:05:59;9.68;;;2.30;;
10387;SDS011;5240;51.128;4.566;2022-12-29T09:08:26;11.15;;;2.38;;
10387;SDS011;5240;51.128;4.566;2022-12-29T09:10:53;12.13;;;2.70;;
10387;SDS011;5240;51.128;4.566;2022-12-29T09:13:21;9.55;;;2.45;;
10387;SDS011;5240;51.128;4.566;2022-12-29T09:15:55;10.20;;;2.28;;
10387;SDS011;5240;51.128;4.566;2022-12-29T09:18:24;8.18;;;2.58;;
10387;SDS011;5240;51.128;4.566;2022-12-29T09:20:55;8.88;;;2.05;;
10387;SDS011;5240;51.128;4.566;2022-12-29T09:23:22;8.73;;;2.55;;
10387;SDS011;5240;51.128;4.566;2022-12-29T09:25:50;7.57;;;2.33;;
10387;SDS011;5240;51.128;4.566;2022-12-29T09:28:17;10.48;;;2.72;;
10387;SDS011;5240;51.128;4.566;2022-12-29T09:30:44;8.75;;;2.42;;
10387;SDS011;5240;51.128;4.566;2022-12-29T09:33:12;9.10;;;2.45;;
10387;SDS011;5240;51.128;4.566;2022-12-29T09:35:41;10.15;;;2.67;;
10387;SDS011;5240;51.128;4.566;2022-12-29T09:38:08;9.32;;;2.80;;
10387;SDS011;5240;51.128;4.566;2022-12-29T09:40:36;12.13;;;3.13;;
10387;SDS011;5240;51.128;4.566;2022-12-29T09:43:11;11.90;;;2.83;;
10387;SDS011;5240;51.128;4.566;2022-12-29T09:46:03;11.60;;;2.95;;
10387;SDS011;5240;51.128;4.566;2022-12-29T09:48:40;10.05;;;2.50;;
10387;SDS011;5240;51.128;4.566;2022-12-29T09:51:13;10.18;;;2.75;;
10387;SDS011;5240;51.128;4.566;2022-12-29T09:53:44;9.30;;;2.47;;
10387;SDS011;5240;51.128;4.566;2022-12-29T09:56:16;9.23;;;2.53;;
10387;SDS011;5240;51.128;4.566;2022-12-29T09:58:47;12.15;;;3.45;;
10387;SDS011;5240;51.128;4.566;2022-12-29T10:01:21;10.90;;;2.78;;
10387;SDS011;5240;51.128;4.566;2022-12-29T10:03:56;12.18;;;2.85;;
10387;SDS011;5240;51.128;4.566;2022-12-29T10:06:24;10.93;;;3.10;;
10387;SDS011;5240;51.128;4.566;2022-12-29T10:08:57;11.85;;;2.80;;
10387;SDS011;5240;51.128;4.566;2022-12-29T10:11:31;8.18;;;2.50;;
10387;SDS011;5240;51.128;4.566;2022-12-29T10:14:14;13.60;;;3.30;;
10387;SDS011;5240;51.128;4.566;2022-12-29T10:16:54;13.60;;;3.05;;
10387;SDS011;5240;51.128;4.566;2022-12-29T10:19:34;8.13;;;2.35;;
10387;SDS011;5240;51.128;4.566;2022-12-29T10:22:15;13.02;;;3.17;;
10387;SDS011;5240;51.128;4.566;2022-12-29T10:24:56;11.20;;;2.75;;
10387;SDS011;5240;51.128;4.566;2022-12-29T10:27:27;11.40;;;2.95;;
10387;SDS011;5240;51.128;4.566;2022-12-29T10:29:59;14.63;;;3.28;;
10387;SDS011;5240;51.128;4.566;2022-12-29T10:32:29;12.20;;;3.25;;
10387;SDS011;5240;51.128;4.566;2022-12-29T10:35:03;14.73;;;3.38;;
10387;SDS011;5240;51.128;4.566;2022-12-29T10:37:39;10.63;;;2.75;;
10387;SDS011;5240;51.128;4.566;2022-12-29T10:40:14;12.10;;;3.00;;
10387;SDS011;5240;51.128;4.566;2022-12-29T10:42:46;10.25;;;2.72;;
10387;SDS011;5240;51.128;4.566;2022-12-29T10:45:18;14.30;;;2.60;;
10387;SDS011;5240;51.128;4.566;2022-12-29T10:47:51;14.75;;;3.00;;
10387;SDS011;5240;51.128;4.566;2022-12-29T10:50:23;13.15;;;3.45;;
10387;SDS011;5240;51.128;4.566;2022-12-29T10:52:51;12.63;;;2.85;;
10387;SDS011;5240;51.128;4.566;2022-12-29T10:55:21;10.20;;;2.58;;
10387;SDS011;5240;51.128;4.566;2022-12-29T10:57:53;11.15;;;2.70;;
10387;SDS011;5240;51.128;4.566;2022-12-29T11:00:22;8.27;;;2.75;;
10387;SDS011;5240;51.128;4.566;2022-12-29T11:02:53;13.45;;;3.47;;
10387;SDS011;5240;51.128;4.566;2022-12-29T11:05:40;10.48;;;3.60;;
10387;SDS011;5240;51.128;4.566;2022-12-29T11:08:13;9.90;;;2.90;;
10387;SDS011;5240;51.128;4.566;2022-12-29T11:10:43;12.63;;;3.47;;
10387;SDS011;5240;51.128;4.566;2022-12-29T11:13:12;9.68;;;2.92;;
10387;SDS011;5240;51.128;4.566;2022-12-29T11:15:41;11.30;;;3.13;;
10387;SDS011;5240;51.128;4.566;2022-12-29T11:18:20;9.82;;;2.78;;
10387;SDS011;5240;51.128;4.566;2022-12-29T11:20:50;7.97;;;2.65;;
10387;SDS011;5240;51.128;4.566;2022-12-29T11:23:27;9.70;;;2.70;;
10387;SDS011;5240;51.128;4.566;2022-12-29T11:26:16;9.75;;;2.88;;
10387;SDS011;5240;51.128;4.566;2022-12-29T11:28:47;12.27;;;2.92;;
10387;SDS011;5240;51.128;4.566;2022-12-29T11:31:33;9.20;;;2.65;;
10387;SDS011;5240;51.128;4.566;2022-12-29T11:34:06;5.75;;;2.38;;
10387;SDS011;5240;51.128;4.566;2022-12-29T11:36:35;13.73;;;3.15;;
10387;SDS011;5240;51.128;4.566;2022-12-29T11:39:04;10.68;;;2.53;;
10387;SDS011;5240;51.128;4.566;2022-12-29T11:41:31;8.88;;;2.58;;
10387;SDS011;5240;51.128;4.566;2022-12-29T11:43:58;9.48;;;2.97;;
10387;SDS011;5240;51.128;4.566;2022-12-29T11:46:29;7.28;;;2.45;;
10387;SDS011;5240;51.128;4.566;2022-12-29T11:48:58;8.57;;;3.00;;
10387;SDS011;5240;51.128;4.566;2022-12-29T11:51:26;9.90;;;2.78;;
10387;SDS011;5240;51.128;4.566;2022-12-29T11:53:58;13.90;;;2.47;;
10387;SDS011;5240;51.128;4.566;2022-12-29T11:56:33;10.50;;;2.90;;
10387;SDS011;5240;51.128;4.566;2022-12-29T11:59:21;8.52;;;3.20;;
10387;SDS011;5240;51.128;4.566;2022-12-29T12:02:02;10.43;;;2.78;;
10387;SDS011;5240;51.128;4.566;2022-12-29T12:04:38;12.98;;;2.65;;
10387;SDS011;5240;51.128;4.566;2022-12-29T12:07:09;8.93;;;3.20;;
10387;SDS011;5240;51.128;4.566;2022-12-29T12:09:43;14.02;;;2.78;;
10387;SDS011;5240;51.128;4.566;2022-12-29T12:12:23;15.07;;;2.58;;
10387;SDS011;5240;51.128;4.566;2022-12-29T12:14:56;11.55;;;2.88;;
10387;SDS011;5240;51.128;4.566;2022-12-29T12:17:26;8.85;;;2.47;;
10387;SDS011;5240;51.128;4.566;2022-12-29T12:20:04;8.80;;;2.72;;
10387;SDS011;5240;51.128;4.566;2022-12-29T12:22:41;6.65;;;2.10;;
10387;SDS011;5240;51.128;4.566;2022-12-29T12:25:18;9.20;;;3.03;;
10387;SDS011;5240;51.128;4.566;2022-12-29T12:27:48;8.80;;;2.45;;
10387;SDS011;5240;51.128;4.566;2022-12-29T12:30:19;9.60;;;2.60;;
10387;SDS011;5240;51.128;4.566;2022-12-29T12:32:48;14.02;;;3.85;;
10387;SDS011;5240;51.128;4.566;2022-12-29T12:35:23;13.93;;;3.47;;
10387;SDS011;5240;51.128;4.566;2022-12-29T12:38:08;14.23;;;3.03;;
10387;SDS011;5240;51.128;4.566;2022-12-29T12:40:56;11.25;;;3.30;;
10387;SDS011;5240;51.128;4.566;2022-12-29T12:46:25;13.55;;;3.53;;
10387;SDS011;5240;51.128;4.566;2022-12-29T12:49:21;14.27;;;4.00;;
10387;SDS011;5240;51.128;4.566;2022-12-29T12:52:14;13.10;;;2.45;;
10387;SDS011;5240;51.128;4.566;2022-12-29T12:54:49;13.55;;;3.17;;
10387;SDS011;5240;51.128;4.566;2022-12-29T12:57:34;10.00;;;3.08;;
10387;SDS011;5240;51.128;4.566;2022-12-29T13:00:10;11.20;;;3.10;;
10387;SDS011;5240;51.128;4.566;2022-12-29T13:02:44;10.30;;;3.13;;
10387;SDS011;5240;51.128;4.566;2022-12-29T13:08:37;10.18;;;2.53;;
10387;SDS011;5240;51.128;4.566;2022-12-29T13:11:20;11.10;;;2.40;;
10387;SDS011;5240;51.128;4.566;2022-12-29T13:13:59;7.78;;;2.50;;
10387;SDS011;5240;51.128;4.566;2022-12-29T13:16:40;10.50;;;2.53;;
10387;SDS011;5240;51.128;4.566;2022-12-29T13:19:14;14.85;;;3.10;;
10387;SDS011;5240;51.128;4.566;2022-12-29T13:21:52;8.55;;;2.60;;
10387;SDS011;5240;51.128;4.566;2022-12-29T13:24:28;9.88;;;2.72;;
10387;SDS011;5240;51.128;4.566;2022-12-29T13:27:08;13.80;;;3.00;;
10387;SDS011;5240;51.128;4.566;2022-12-29T13:29:45;8.25;;;1.98;;
10387;SDS011;5240;51.128;4.566;2022-12-29T13:32:20;12.35;;;2.58;;
10387;SDS011;5240;51.128;4.566;2022-12-29T13:34:56;6.45;;;2.20;;
10387;SDS011;5240;51.128;4.566;2022-12-29T13:37:41;10.15;;;2.20;;
10387;SDS011;5240;51.128;4.566;2022-12-29T13:40:16;6.63;;;2.42;;
10387;SDS011;5240;51.128;4.566;2022-12-29T13:42:47;12.93;;;2.88;;
10387;SDS011;5240;51.128;4.566;2022-12-29T13:45:17;10.05;;;2.28;;
10387;SDS011;5240;51.128;4.566;2022-12-29T13:47:47;7.60;;;2.53;;
10387;SDS011;5240;51.128;4.566;2022-12-29T13:50:20;6.90;;;2.20;;
10387;SDS011;5240;51.128;4.566;2022-12-29T13:52:53;7.55;;;2.38;;
10387;SDS011;5240;51.128;4.566;2022-12-29T13:55:28;8.45;;;2.25;;
10387;SDS011;5240;51.128;4.566;2022-12-29T13:58:00;11.63;;;2.50;;
10387;SDS011;5240;51.128;4.566;2022-12-29T14:00:38;9.32;;;2.60;;
10387;SDS011;5240;51.128;4.566;2022-12-29T14:03:27;8.98;;;3.00;;
10387;SDS011;5240;51.128;4.566;2022-12-29T14:06:12;12.63;;;3.70;;
10387;SDS011;5240;51.128;4.566;2022-12-29T14:08:49;7.78;;;2.90;;
10387;SDS011;5240;51.128;4.566;2022-12-29T14:11:20;8.05;;;3.00;;
10387;SDS011;5240;51.128;4.566;2022-12-29T14:13:50;8.90;;;2.75;;
10387;SDS011;5240;51.128;4.566;2022-12-29T14:16:25;11.02;;;3.20;;
10387;SDS011;5240;51.128;4.566;2022-12-29T14:19:03;10.82;;;3.03;;
10387;SDS011;5240;51.128;4.566;2022-12-29T14:21:32;9.02;;;2.70;;
10387;SDS011;5240;51.128;4.566;2022-12-29T14:30:45;8.68;;;2.35;;
10387;SDS011;5240;51.128;4.566;2022-12-29T14:33:18;4.18;;;1.83;;
10387;SDS011;5240;51.128;4.566;2022-12-29T14:35:47;5.20;;;1.83;;
10387;SDS011;5240;51.128;4.566;2022-12-29T14:38:27;7.78;;;1.80;;
10387;SDS011;5240;51.128;4.566;2022-12-29T14:43:50;6.93;;;2.22;;
10387;SDS011;5240;51.128;4.566;2022-12-29T14:46:20;6.05;;;1.58;;
10387;SDS011;5240;51.128;4.566;2022-12-29T14:48:52;4.85;;;1.35;;
10387;SDS011;5240;51.128;4.566;2022-12-29T14:51:31;3.95;;;1.40;;
10387;SDS011;5240;51.128;4.566;2022-12-29T14:54:01;3.88;;;1.33;;
10387;SDS011;5240;51.128;4.566;2022-12-29T14:57:07;3.60;;;1.40;;
10387;SDS011;5240;51.128;4.566;2022-12-29T14:59:37;3.40;;;1.70;;
10387;SDS011;5240;51.128;4.566;2022-12-29T15:02:11;2.40;;;1.38;;
10387;SDS011;5240;51.128;4.566;2022-12-29T15:04:43;3.05;;;1.48;;
10387;SDS011;5240;51.128;4.566;2022-12-29T15:07:11;4.00;;;1.50;;
10387;SDS011;5240;51.128;4.566;2022-12-29T15:09:40;4.72;;;1.50;;
10387;SDS011;5240;51.128;4.566;2022-12-29T15:12:15;3.83;;;1.30;;
10387;SDS011;5240;51.128;4.566;2022-12-29T15:14:49;3.95;;;1.80;;
10387;SDS011;5240;51.128;4.566;2022-12-29T15:17:23;3.97;;;1.33;;
10387;SDS011;5240;51.128;4.566;2022-12-29T15:19:54;4.85;;;1.55;;
10387;SDS011;5240;51.128;4.566;2022-12-29T15:22:22;3.97;;;1.73;;
10387;SDS011;5240;51.128;4.566;2022-12-29T15:24:51;4.07;;;1.60;;
10387;SDS011;5240;51.128;4.566;2022-12-29T15:27:20;3.03;;;1.50;;
10387;SDS011;5240;51.128;4.566;2022-12-29T15:29:55;4.68;;;1.50;;
10387;SDS011;5240;51.128;4.566;2022-12-29T15:32:23;6.45;;;1.73;;
10387;SDS011;5240;51.128;4.566;2022-12-29T15:34:52;5.55;;;1.77;;
10387;SDS011;5240;51.128;4.566;2022-12-29T15:37:22;6.95;;;1.52;;
10387;SDS011;5240;51.128;4.566;2022-12-29T15:39:51;4.40;;;2.10;;
10387;SDS011;5240;51.128;4.566;2022-12-29T15:45:16;7.97;;;2.20;;
10387;SDS011;5240;51.128;4.566;2022-12-29T15:47:43;6.68;;;2.28;;
10387;SDS011;5240;51.128;4.566;2022-12-29T15:50:17;5.43;;;2.50;;